sensor_id;sensor_type;location;lat;lon;timestamp;pressure;altitude;pressure_sealevel;temperature;humidity
49627;BME280;35527;54.616;39.786;2023-02-12T00:01:59;98713.47;;;-2.95;100.00
49627;BME280;35527;54.616;39.786;2023-02-12T00:05:02;98709.25;;;-2.99;100.00
49627;BME280;35527;54.616;39.786;2023-02-12T00:08:08;98710.91;;;-2.90;100.00
49627;BME280;35527;54.616;39.786;2023-02-12T00:11:23;98722.72;;;-2.87;100.00
49627;BME280;35527;54.616;39.786;2023-02-12T00:14:26;98700.81;;;-2.99;100.00
49627;BME280;35527;54.616;39.786;2023-02-12T00:17:28;98698.28;;;-2.95;100.00
49627;BME280;35527;54.616;39.786;2023-02-12T00:20:35;98694.03;;;-2.86;100.00
49627;BME280;35527;54.616;39.786;2023-02-12T00:23:39;98694.88;;;-2.84;100.00
49627;BME280;35527;54.616;39.786;2023-02-12T00:26:45;98647.72;;;-3.13;100.00
49627;BME280;35527;54.616;39.786;2023-02-12T00:29:53;98656.94;;;-2.90;100.00
49627;BME280;35527;54.616;39.786;2023-02-12T00:32:56;98678.00;;;-2.87;100.00
49627;BME280;35527;54.616;39.786;2023-02-12T00:36:00;98666.19;;;-2.80;100.00
49627;BME280;35527;54.616;39.786;2023-02-12T00:39:03;98619.78;;;-2.90;100.00
49627;BME280;35527;54.616;39.786;2023-02-12T00:42:11;98667.88;;;-2.90;100.00
49627;BME280;35527;54.616;39.786;2023-02-12T00:45:14;98651.84;;;-2.86;100.00
49627;BME280;35527;54.616;39.786;2023-02-12T00:48:18;98658.53;;;-2.73;100.00
49627;BME280;35527;54.616;39.786;2023-02-12T00:51:21;98630.75;;;-2.85;100.00
49627;BME280;35527;54.616;39.786;2023-02-12T00:54:24;98670.38;;;-2.72;100.00
49627;BME280;35527;54.616;39.786;2023-02-12T00:57:32;98658.53;;;-2.76;100.00
49627;BME280;35527;54.616;39.786;2023-02-12T01:00:36;98636.56;;;-2.69;100.00
49627;BME280;35527;54.616;39.786;2023-02-12T01:03:39;98641.63;;;-2.67;100.00
49627;BME280;35527;54.616;39.786;2023-02-12T01:06:43;98599.50;;;-2.82;100.00
49627;BME280;35527;54.616;39.786;2023-02-12T01:09:46;98607.09;;;-2.81;100.00
49627;BME280;35527;54.616;39.786;2023-02-12T01:12:52;98637.41;;;-2.67;100.00
49627;BME280;35527;54.616;39.786;2023-02-12T01:16:06;98637.41;;;-2.62;100.00
49627;BME280;35527;54.616;39.786;2023-02-12T01:19:13;98581.75;;;-2.76;100.00
49627;BME280;35527;54.616;39.786;2023-02-12T01:22:19;98623.06;;;-2.65;100.00
49627;BME280;35527;54.616;39.786;2023-02-12T01:25:25;98601.13;;;-2.72;100.00
49627;BME280;35527;54.616;39.786;2023-02-12T01:28:29;98608.69;;;-2.60;100.00
49627;BME280;35527;54.616;39.786;2023-02-12T01:31:35;98594.41;;;-2.72;100.00
49627;BME280;35527;54.616;39.786;2023-02-12T01:34:39;98611.16;;;-2.55;100.00
49627;BME280;35527;54.616;39.786;2023-02-12T01:37:42;98603.56;;;-2.51;100.00
49627;BME280;35527;54.616;39.786;2023-02-12T01:40:47;98596.03;;;-2.63;100.00
49627;BME280;35527;54.616;39.786;2023-02-12T01:44:07;98595.97;;;-2.51;100.00
49627;BME280;35527;54.616;39.786;2023-02-12T01:47:18;98594.31;;;-2.61;100.00
49627;BME280;35527;54.616;39.786;2023-02-12T01:50:22;98583.28;;;-2.52;100.00
49627;BME280;35527;54.616;39.786;2023-02-12T01:53:30;98553.00;;;-2.67;100.00
49627;BME280;35527;54.616;39.786;2023-02-12T01:56:37;98603.53;;;-2.47;100.00
49627;BME280;35527;54.616;39.786;2023-02-12T01:59:43;98592.53;;;-2.45;100.00
49627;BME280;35527;54.616;39.786;2023-02-12T02:03:11;98584.06;;;-2.41;100.00
49627;BME280;35527;54.616;39.786;2023-02-12T02:06:19;98585.00;;;-2.53;100.00
49627;BME280;35527;54.616;39.786;2023-02-12T02:09:26;98588.31;;;-2.44;100.00
49627;BME280;35527;54.616;39.786;2023-02-12T02:12:30;98591.69;;;-2.42;100.00
49627;BME280;35527;54.616;39.786;2023-02-12T02:15:55;98569.78;;;-2.50;100.00
49627;BME280;35527;54.616;39.786;2023-02-12T02:19:09;98558.00;;;-2.54;100.00
49627;BME280;35527;54.616;39.786;2023-02-12T02:28:58;98586.56;;;-2.36;100.00
49627;BME280;35527;54.616;39.786;2023-02-12T02:32:37;98573.91;;;-2.38;100.00
49627;BME280;35527;54.616;39.786;2023-02-12T02:35:46;98582.38;;;-2.39;100.00
49627;BME280;35527;54.616;39.786;2023-02-12T02:42:44;98564.75;;;-2.54;100.00
49627;BME280;35527;54.616;39.786;2023-02-12T02:46:06;98539.41;;;-2.56;100.00
49627;BME280;35527;54.616;39.786;2023-02-12T02:49:33;98576.41;;;-2.32;100.00
49627;BME280;35527;54.616;39.786;2023-02-12T02:52:47;98563.78;;;-2.38;100.00
49627;BME280;35527;54.616;39.786;2023-02-12T02:55:53;98574.72;;;-2.31;100.00
49627;BME280;35527;54.616;39.786;2023-02-12T02:59:05;98569.59;;;-2.27;100.00
49627;BME280;35527;54.616;39.786;2023-02-12T03:02:22;98579.69;;;-2.19;100.00
49627;BME280;35527;54.616;39.786;2023-02-12T03:05:36;98578.00;;;-2.21;100.00
49627;BME280;35527;54.616;39.786;2023-02-12T03:08:47;98582.19;;;-2.16;100.00
49627;BME280;35527;54.616;39.786;2023-02-12T03:11:57;98566.97;;;-2.13;100.00
49627;BME280;35527;54.616;39.786;2023-02-12T03:15:08;98576.25;;;-2.10;100.00
49627;BME280;35527;54.616;39.786;2023-02-12T03:18:21;98569.44;;;-2.07;100.00
49627;BME280;35527;54.616;39.786;2023-02-12T03:21:34;98573.66;;;-2.04;100.00
49627;BME280;35527;54.616;39.786;2023-02-12T03:24:49;98572.78;;;-2.01;100.00
49627;BME280;35527;54.616;39.786;2023-02-12T03:28:27;98567.75;;;-2.06;100.00
49627;BME280;35527;54.616;39.786;2023-02-12T03:38:08;98591.41;;;-2.06;100.00
49627;BME280;35527;54.616;39.786;2023-02-12T03:41:23;98566.94;;;-2.10;100.00
49627;BME280;35527;54.616;39.786;2023-02-12T03:48:17;98590.59;;;-2.08;100.00
49627;BME280;35527;54.616;39.786;2023-02-12T03:51:39;98584.69;;;-2.13;100.00
49627;BME280;35527;54.616;39.786;2023-02-12T03:54:45;98572.91;;;-2.14;100.00
49627;BME280;35527;54.616;39.786;2023-02-12T03:57:51;98552.72;;;-2.26;100.00
49627;BME280;35527;54.616;39.786;2023-02-12T04:00:59;98569.41;;;-2.02;100.00
49627;BME280;35527;54.616;39.786;2023-02-12T04:04:07;98577.03;;;-2.02;100.00
49627;BME280;35527;54.616;39.786;2023-02-12T04:07:12;98550.13;;;-2.21;100.00
49627;BME280;35527;54.616;39.786;2023-02-12T04:10:34;98551.78;;;-2.14;100.00
49627;BME280;35527;54.616;39.786;2023-02-12T04:27:11;98578.56;;;-1.86;100.00
49627;BME280;35527;54.616;39.786;2023-02-12T04:30:27;98591.25;;;-1.87;100.00
49627;BME280;35527;54.616;39.786;2023-02-12T04:33:46;98587.84;;;-1.85;100.00
49627;BME280;35527;54.616;39.786;2023-02-12T04:40:10;98558.44;;;-2.04;100.00
49627;BME280;35527;54.616;39.786;2023-02-12T04:43:27;98600.53;;;-1.83;100.00
49627;BME280;35527;54.616;39.786;2023-02-12T04:46:31;98587.13;;;-1.97;100.00
49627;BME280;35527;54.616;39.786;2023-02-12T04:49:33;98608.91;;;-1.78;100.00
49627;BME280;35527;54.616;39.786;2023-02-12T04:52:37;98604.69;;;-1.77;100.00
49627;BME280;35527;54.616;39.786;2023-02-12T04:55:42;98611.41;;;-1.75;100.00
49627;BME280;35527;54.616;39.786;2023-02-12T04:58:49;98608.84;;;-1.70;100.00
49627;BME280;35527;54.616;39.786;2023-02-12T05:01:57;98602.16;;;-1.81;100.00
49627;BME280;35527;54.616;39.786;2023-02-12T05:05:00;98616.44;;;-1.67;100.00
49627;BME280;35527;54.616;39.786;2023-02-12T05:08:05;98603.84;;;-1.76;100.00
49627;BME280;35527;54.616;39.786;2023-02-12T05:11:09;98618.13;;;-1.69;100.00
49627;BME280;35527;54.616;39.786;2023-02-12T05:14:14;98640.03;;;-1.59;100.00
49627;BME280;35527;54.616;39.786;2023-02-12T05:17:17;98609.72;;;-1.73;100.00
49627;BME280;35527;54.616;39.786;2023-02-12T05:20:23;98644.22;;;-1.53;100.00
49627;BME280;35527;54.616;39.786;2023-02-12T05:23:27;98636.69;;;-1.63;100.00
49627;BME280;35527;54.616;39.786;2023-02-12T05:26:36;98648.50;;;-1.63;100.00
49627;BME280;35527;54.616;39.786;2023-02-12T05:29:40;98648.63;;;-1.74;100.00
49627;BME280;35527;54.616;39.786;2023-02-12T05:32:44;98638.63;;;-1.91;100.00
49627;BME280;35527;54.616;39.786;2023-02-12T05:35:47;98649.66;;;-1.96;100.00
49627;BME280;35527;54.616;39.786;2023-02-12T05:38:56;98653.88;;;-1.97;100.00
49627;BME280;35527;54.616;39.786;2023-02-12T05:41:59;98679.22;;;-1.98;100.00
49627;BME280;35527;54.616;39.786;2023-02-12T05:45:04;98659.91;;;-2.15;100.00
49627;BME280;35527;54.616;39.786;2023-02-12T05:48:07;98683.44;;;-1.94;100.00
49627;BME280;35527;54.616;39.786;2023-02-12T05:51:12;98705.41;;;-1.98;100.00
49627;BME280;35527;54.616;39.786;2023-02-12T05:54:16;98718.16;;;-2.06;100.00
49627;BME280;35527;54.616;39.786;2023-02-12T05:57:21;98716.47;;;-2.10;100.00
49627;BME280;35527;54.616;39.786;2023-02-12T06:00:24;98711.44;;;-2.13;100.00
49627;BME280;35527;54.616;39.786;2023-02-12T06:03:30;98743.56;;;-2.16;100.00
49627;BME280;35527;54.616;39.786;2023-02-12T06:06:33;98726.69;;;-2.23;100.00
49627;BME280;35527;54.616;39.786;2023-02-12T06:09:36;98744.47;;;-2.28;100.00
49627;BME280;35527;54.616;39.786;2023-02-12T06:12:40;98739.44;;;-2.42;100.00
49627;BME280;35527;54.616;39.786;2023-02-12T06:15:44;98772.31;;;-2.30;100.00
49627;BME280;35527;54.616;39.786;2023-02-12T06:18:48;98773.19;;;-2.32;100.00
49627;BME280;35527;54.616;39.786;2023-02-12T06:21:53;98741.94;;;-2.36;100.00
49627;BME280;35527;54.616;39.786;2023-02-12T06:24:56;98790.88;;;-2.18;100.00
49627;BME280;35527;54.616;39.786;2023-02-12T06:28:00;98788.31;;;-2.18;100.00
49627;BME280;35527;54.616;39.786;2023-02-12T06:31:02;98778.22;;;-2.23;100.00
49627;BME280;35527;54.616;39.786;2023-02-12T06:34:10;98786.69;;;-2.27;100.00
49627;BME280;35527;54.616;39.786;2023-02-12T06:37:15;98798.50;;;-2.29;100.00
49627;BME280;35527;54.616;39.786;2023-02-12T06:40:20;98809.50;;;-2.33;100.00
49627;BME280;35527;54.616;39.786;2023-02-12T06:43:22;98805.31;;;-2.34;100.00
49627;BME280;35527;54.616;39.786;2023-02-12T06:46:26;98795.19;;;-2.37;100.00
49627;BME280;35527;54.616;39.786;2023-02-12T06:49:28;98823.84;;;-2.32;100.00
49627;BME280;35527;54.616;39.786;2023-02-12T06:52:31;98817.97;;;-2.36;100.00
49627;BME280;35527;54.616;39.786;2023-02-12T06:55:34;98847.47;;;-2.24;100.00
49627;BME280;35527;54.616;39.786;2023-02-12T06:58:42;98828.13;;;-2.42;100.00
49627;BME280;35527;54.616;39.786;2023-02-12T07:01:46;98867.75;;;-2.27;100.00
49627;BME280;35527;54.616;39.786;2023-02-12T07:04:52;98851.75;;;-2.37;100.00
49627;BME280;35527;54.616;39.786;2023-02-12T07:07:55;98849.19;;;-2.35;100.00
49627;BME280;35527;54.616;39.786;2023-02-12T07:10:58;98859.38;;;-2.40;100.00
49627;BME280;35527;54.616;39.786;2023-02-12T07:14:00;98820.59;;;-2.74;100.00
49627;BME280;35527;54.616;39.786;2023-02-12T07:17:05;98881.31;;;-2.37;100.00
49627;BME280;35527;54.616;39.786;2023-02-12T07:20:10;98853.47;;;-2.45;100.00
49627;BME280;35527;54.616;39.786;2023-02-12T07:23:16;98846.72;;;-2.46;100.00
49627;BME280;35527;54.616;39.786;2023-02-12T07:26:20;98899.88;;;-2.34;100.00
49627;BME280;35527;54.616;39.786;2023-02-12T07:29:23;98888.94;;;-2.45;100.00
49627;BME280;35527;54.616;39.786;2023-02-12T07:32:27;98888.06;;;-2.39;100.00
49627;BME280;35527;54.616;39.786;2023-02-12T07:35:31;98904.94;;;-2.35;100.00
49627;BME280;35527;54.616;39.786;2023-02-12T07:38:33;98906.66;;;-2.37;100.00
49627;BME280;35527;54.616;39.786;2023-02-12T07:41:42;98926.88;;;-2.23;100.00
49627;BME280;35527;54.616;39.786;2023-02-12T07:44:48;98926.84;;;-2.10;100.00
49627;BME280;35527;54.616;39.786;2023-02-12T07:47:59;98942.88;;;-2.06;100.00
49627;BME280;35527;54.616;39.786;2023-02-12T07:51:07;98926.03;;;-2.27;100.00
49627;BME280;35527;54.616;39.786;2023-02-12T07:54:12;98974.19;;;-2.25;100.00
49627;BME280;35527;54.616;39.786;2023-02-12T07:57:18;98968.28;;;-2.24;100.00
49627;BME280;35527;54.616;39.786;2023-02-12T08:00:27;98969.97;;;-2.30;100.00
49627;BME280;35527;54.616;39.786;2023-02-12T08:03:31;98985.19;;;-2.28;100.00
49627;BME280;35527;54.616;39.786;2023-02-12T08:06:40;98980.97;;;-2.40;100.00
49627;BME280;35527;54.616;39.786;2023-02-12T08:09:44;98969.97;;;-2.43;100.00
49627;BME280;35527;54.616;39.786;2023-02-12T08:12:48;98988.56;;;-2.34;100.00
49627;BME280;35527;54.616;39.786;2023-02-12T08:15:58;98997.84;;;-2.48;100.00
49627;BME280;35527;54.616;39.786;2023-02-12T08:19:04;98969.97;;;-2.63;100.00
49627;BME280;35527;54.616;39.786;2023-02-12T08:22:18;98997.84;;;-2.50;100.00
49627;BME280;35527;54.616;39.786;2023-02-12T08:25:23;99003.75;;;-2.67;100.00
49627;BME280;35527;54.616;39.786;2023-02-12T08:28:26;99000.34;;;-2.69;100.00
49627;BME280;35527;54.616;39.786;2023-02-12T08:31:38;99030.78;;;-2.59;100.00
49627;BME280;35527;54.616;39.786;2023-02-12T08:34:41;99030.75;;;-2.76;100.00
49627;BME280;35527;54.616;39.786;2023-02-12T08:37:47;99059.44;;;-2.69;100.00
49627;BME280;35527;54.616;39.786;2023-02-12T08:40:49;99056.13;;;-2.60;100.00
49627;BME280;35527;54.616;39.786;2023-02-12T08:43:56;99032.47;;;-2.72;100.00
49627;BME280;35527;54.616;39.786;2023-02-12T08:46:59;99073.81;;;-2.62;100.00
49627;BME280;35527;54.616;39.786;2023-02-12T08:50:02;99066.19;;;-2.73;100.00
49627;BME280;35527;54.616;39.786;2023-02-12T08:53:06;99062.00;;;-2.70;100.00
49627;BME280;35527;54.616;39.786;2023-02-12T08:56:16;99068.72;;;-2.69;100.00
49627;BME280;35527;54.616;39.786;2023-02-12T08:59:18;99080.53;;;-2.76;100.00
49627;BME280;35527;54.616;39.786;2023-02-12T09:02:23;99055.22;;;-2.88;100.00
49627;BME280;35527;54.616;39.786;2023-02-12T09:05:26;99109.22;;;-2.85;100.00
49627;BME280;35527;54.616;39.786;2023-02-12T09:08:31;99096.59;;;-2.77;100.00
49627;BME280;35527;54.616;39.786;2023-02-12T09:11:36;99089.88;;;-2.66;100.00
49627;BME280;35527;54.616;39.786;2023-02-12T09:14:43;99083.94;;;-2.63;100.00
49627;BME280;35527;54.616;39.786;2023-02-12T09:17:45;99107.66;;;-2.15;100.00
49627;BME280;35527;54.616;39.786;2023-02-12T09:20:49;99117.81;;;-1.94;100.00
49627;BME280;35527;54.616;39.786;2023-02-12T09:23:54;99078.09;;;-2.13;100.00
49627;BME280;35527;54.616;39.786;2023-02-12T09:26:58;99116.13;;;-1.69;100.00
49627;BME280;35527;54.616;39.786;2023-02-12T09:30:02;99122.00;;;-1.64;100.00
49627;BME280;35527;54.616;39.786;2023-02-12T09:33:08;99122.03;;;-1.65;100.00
49627;BME280;35527;54.616;39.786;2023-02-12T09:36:14;99132.16;;;-1.61;100.00
49627;BME280;35527;54.616;39.786;2023-02-12T09:39:21;99160.06;;;-1.67;100.00
49627;BME280;35527;54.616;39.786;2023-02-12T09:49:42;99175.28;;;-1.48;100.00
49627;BME280;35527;54.616;39.786;2023-02-12T09:52:53;99173.63;;;-1.77;100.00
49627;BME280;35527;54.616;39.786;2023-02-12T09:55:59;99157.50;;;-2.19;100.00
49627;BME280;35527;54.616;39.786;2023-02-12T09:59:05;99183.69;;;-2.23;100.00
49627;BME280;35527;54.616;39.786;2023-02-12T10:02:13;99169.38;;;-1.84;100.00
49627;BME280;35527;54.616;39.786;2023-02-12T10:05:28;99172.75;;;-2.08;100.00
49627;BME280;35527;54.616;39.786;2023-02-12T10:12:16;99159.22;;;-1.98;100.00
49627;BME280;35527;54.616;39.786;2023-02-12T10:15:36;99214.19;;;-1.75;100.00
49627;BME280;35527;54.616;39.786;2023-02-12T10:25:58;99220.09;;;-1.96;100.00
49627;BME280;35527;54.616;39.786;2023-02-12T10:29:12;99234.44;;;-1.92;100.00
49627;BME280;35527;54.616;39.786;2023-02-12T10:32:26;99241.22;;;-1.82;100.00
49627;BME280;35527;54.616;39.786;2023-02-12T10:35:31;99231.03;;;-2.17;100.00
49627;BME280;35527;54.616;39.786;2023-02-12T10:38:39;99259.75;;;-2.12;100.00
49627;BME280;35527;54.616;39.786;2023-02-12T10:45:00;99219.19;;;-2.26;100.00
49627;BME280;35527;54.616;39.786;2023-02-12T10:48:12;99268.25;;;-1.96;100.00
49627;BME280;35527;54.616;39.786;2023-02-12T10:54:47;99267.28;;;-2.32;100.00
49627;BME280;35527;54.616;39.786;2023-02-12T10:57:56;99295.16;;;-2.29;100.00
49627;BME280;35527;54.616;39.786;2023-02-12T11:00:59;99291.84;;;-2.13;100.00
49627;BME280;35527;54.616;39.786;2023-02-12T11:07:28;99294.38;;;-2.22;100.00
49627;BME280;35527;54.616;39.786;2023-02-12T11:10:37;99301.94;;;-2.28;100.00
49627;BME280;35527;54.616;39.786;2023-02-12T11:13:54;99296.84;;;-2.36;100.00
49627;BME280;35527;54.616;39.786;2023-02-12T11:16:59;99291.69;;;-2.54;100.00
49627;BME280;35527;54.616;39.786;2023-02-12T11:23:31;99321.34;;;-2.30;100.00
49627;BME280;35527;54.616;39.786;2023-02-12T11:26:34;99322.97;;;-2.47;100.00
49627;BME280;35527;54.616;39.786;2023-02-12T11:29:39;99343.28;;;-2.37;100.00
49627;BME280;35527;54.616;39.786;2023-02-12T11:32:44;99342.44;;;-2.37;100.00
49627;BME280;35527;54.616;39.786;2023-02-12T11:35:53;99310.28;;;-2.51;100.00
49627;BME280;35527;54.616;39.786;2023-02-12T11:38:57;99360.09;;;-2.50;100.00
49627;BME280;35527;54.616;39.786;2023-02-12T11:42:20;99344.78;;;-2.68;100.00
49627;BME280;35527;54.616;39.786;2023-02-12T11:45:31;99382.81;;;-2.62;100.00
49627;BME280;35527;54.616;39.786;2023-02-12T11:48:41;99391.22;;;-2.67;100.00
49627;BME280;35527;54.616;39.786;2023-02-12T11:51:49;99392.13;;;-2.59;100.00
49627;BME280;35527;54.616;39.786;2023-02-12T11:54:58;99402.19;;;-2.68;100.00
49627;BME280;35527;54.616;39.786;2023-02-12T11:58:15;99361.38;;;-3.08;100.00
49627;BME280;35527;54.616;39.786;2023-02-12T12:01:27;99406.13;;;-3.03;100.00
49627;BME280;35527;54.616;39.786;2023-02-12T12:04:32;99403.44;;;-3.20;100.00
49627;BME280;35527;54.616;39.786;2023-02-12T12:07:49;99432.28;;;-3.02;100.00
49627;BME280;35527;54.616;39.786;2023-02-12T12:31:59;99470.03;;;-3.24;100.00
49627;BME280;35527;54.616;39.786;2023-02-12T12:35:09;99484.25;;;-3.33;100.00
49627;BME280;35527;54.616;39.786;2023-02-12T12:38:32;99454.81;;;-3.28;100.00
49627;BME280;35527;54.616;39.786;2023-02-12T12:49:24;99522.34;;;-3.21;100.00
49627;BME280;35527;54.616;39.786;2023-02-12T13:06:20;99567.94;;;-3.18;100.00
49627;BME280;35527;54.616;39.786;2023-02-12T13:13:47;99547.31;;;-3.47;100.00
49627;BME280;35527;54.616;39.786;2023-02-12T13:16:52;99592.84;;;-3.49;100.00
49627;BME280;35527;54.616;39.786;2023-02-12T13:20:22;99595.34;;;-3.52;100.00
49627;BME280;35527;54.616;39.786;2023-02-12T13:24:00;99573.06;;;-3.76;100.00
49627;BME280;35527;54.616;39.786;2023-02-12T13:27:15;99583.69;;;-3.98;100.00
49627;BME280;35527;54.616;39.786;2023-02-12T13:30:38;99626.09;;;-3.80;100.00
49627;BME280;35527;54.616;39.786;2023-02-12T13:34:06;99631.00;;;-3.90;100.00
49627;BME280;35527;54.616;39.786;2023-02-12T13:37:19;99630.75;;;-4.03;100.00
49627;BME280;35527;54.616;39.786;2023-02-12T13:40:27;99632.44;;;-4.05;100.00
49627;BME280;35527;54.616;39.786;2023-02-12T13:44:15;99653.44;;;-4.07;100.00
49627;BME280;35527;54.616;39.786;2023-02-12T13:52:01;99660.09;;;-4.13;100.00
49627;BME280;35527;54.616;39.786;2023-02-12T14:01:44;99695.91;;;-3.87;100.00
49627;BME280;35527;54.616;39.786;2023-02-12T14:05:14;99694.41;;;-4.26;100.00
49627;BME280;35527;54.616;39.786;2023-02-12T14:08:35;99678.09;;;-4.42;100.00
49627;BME280;35527;54.616;39.786;2023-02-12T14:11:49;99706.03;;;-4.34;100.00
49627;BME280;35527;54.616;39.786;2023-02-12T14:15:06;99707.03;;;-4.26;100.00
49627;BME280;35527;54.616;39.786;2023-02-12T14:18:44;99718.72;;;-4.30;100.00
49627;BME280;35527;54.616;39.786;2023-02-12T14:21:50;99745.56;;;-4.36;100.00
49627;BME280;35527;54.616;39.786;2023-02-12T14:31:56;99696.75;;;-4.78;100.00
49627;BME280;35527;54.616;39.786;2023-02-12T14:41:39;99757.19;;;-4.44;100.00
49627;BME280;35527;54.616;39.786;2023-02-12T14:44:54;99776.47;;;-4.46;100.00
49627;BME280;35527;54.616;39.786;2023-02-12T14:47:59;99747.78;;;-4.91;100.00
49627;BME280;35527;54.616;39.786;2023-02-12T14:51:04;99804.78;;;-4.63;100.00
49627;BME280;35527;54.616;39.786;2023-02-12T14:54:20;99797.75;;;-4.76;100.00
49627;BME280;35527;54.616;39.786;2023-02-12T15:00:39;99823.75;;;-4.80;100.00
49627;BME280;35527;54.616;39.786;2023-02-12T15:03:52;99797.38;;;-4.93;100.00
49627;BME280;35527;54.616;39.786;2023-02-12T15:07:39;99792.31;;;-4.93;100.00
49627;BME280;35527;54.616;39.786;2023-02-12T15:10:58;99800.56;;;-1.28;100.00
49627;BME280;35527;54.616;39.786;2023-02-12T15:14:33;99829.34;;;7.27;58.72
49627;BME280;35527;54.616;39.786;2023-02-12T15:21:22;99856.34;;;7.77;47.00
49627;BME280;35527;54.616;39.786;2023-02-12T15:24:26;99847.84;;;7.41;45.25
49627;BME280;35527;54.616;39.786;2023-02-12T15:27:32;99849.41;;;6.38;45.27
49627;BME280;35527;54.616;39.786;2023-02-12T15:30:35;99831.97;;;6.89;45.34
49627;BME280;35527;54.616;39.786;2023-02-12T15:33:44;99861.44;;;6.37;46.26
49627;BME280;35527;54.616;39.786;2023-02-12T15:36:50;99884.38;;;5.56;48.60
49627;BME280;35527;54.616;39.786;2023-02-12T15:40:20;99879.41;;;5.46;47.57
49627;BME280;35527;54.616;39.786;2023-02-12T15:43:27;99889.53;;;6.03;48.55
49627;BME280;35527;54.616;39.786;2023-02-12T15:46:32;99887.47;;;6.20;45.70
49627;BME280;35527;54.616;39.786;2023-02-12T15:49:37;99873.44;;;5.92;46.12
49627;BME280;35527;54.616;39.786;2023-02-12T15:52:43;99891.09;;;6.52;46.42
49627;BME280;35527;54.616;39.786;2023-02-12T15:55:51;99913.06;;;5.29;47.74
49627;BME280;35527;54.616;39.786;2023-02-12T15:58:59;99919.38;;;6.53;46.03
49627;BME280;35527;54.616;39.786;2023-02-12T16:02:34;99918.66;;;6.47;44.83
49627;BME280;35527;54.616;39.786;2023-02-12T16:05:37;99937.88;;;5.79;44.75
49627;BME280;35527;54.616;39.786;2023-02-12T16:08:42;99932.81;;;5.75;46.78
49627;BME280;35527;54.616;39.786;2023-02-12T16:12:14;99913.88;;;5.82;100.00
49627;BME280;35527;54.616;39.786;2023-02-12T16:15:28;99941.41;;;5.72;52.88
49627;BME280;35527;54.616;39.786;2023-02-12T16:18:35;99949.97;;;6.22;47.62
49627;BME280;35527;54.616;39.786;2023-02-12T16:21:39;99953.41;;;5.72;45.72
49627;BME280;35527;54.616;39.786;2023-02-12T16:24:49;99959.59;;;5.60;48.20
49627;BME280;35527;54.616;39.786;2023-02-12T16:31:12;99960.59;;;5.51;99.79
49627;BME280;35527;54.616;39.786;2023-02-12T16:34:36;99979.56;;;7.96;44.45
49627;BME280;35527;54.616;39.786;2023-02-12T16:37:44;99968.00;;;5.15;46.15
49627;BME280;35527;54.616;39.786;2023-02-12T16:44:27;99953.34;;;4.60;47.11
49627;BME280;35527;54.616;39.786;2023-02-12T16:47:33;100005.88;;;4.24;47.36
49627;BME280;35527;54.616;39.786;2023-02-12T16:50:51;99987.53;;;4.59;46.91
49627;BME280;35527;54.616;39.786;2023-02-12T16:53:57;99979.34;;;4.28;47.68
49627;BME280;35527;54.616;39.786;2023-02-12T16:57:08;99952.16;;;4.86;46.32
49627;BME280;35527;54.616;39.786;2023-02-12T17:00:15;99998.22;;;4.92;46.35
49627;BME280;35527;54.616;39.786;2023-02-12T17:03:19;99974.19;;;4.31;45.91
49627;BME280;35527;54.616;39.786;2023-02-12T17:06:24;100014.63;;;4.80;46.45
49627;BME280;35527;54.616;39.786;2023-02-12T17:09:28;100029.47;;;4.54;46.74
49627;BME280;35527;54.616;39.786;2023-02-12T17:12:31;100010.13;;;4.25;46.30
49627;BME280;35527;54.616;39.786;2023-02-12T17:15:50;100027.41;;;2.64;50.72
49627;BME280;35527;54.616;39.786;2023-02-12T17:18:57;100018.94;;;2.45;50.88
49627;BME280;35527;54.616;39.786;2023-02-12T17:22:00;100033.47;;;2.30;50.58
49627;BME280;35527;54.616;39.786;2023-02-12T17:25:08;100024.09;;;2.25;51.21
49627;BME280;35527;54.616;39.786;2023-02-12T17:28:13;100046.09;;;2.82;50.08
49627;BME280;35527;54.616;39.786;2023-02-12T17:31:17;100018.97;;;2.38;49.33
49627;BME280;35527;54.616;39.786;2023-02-12T17:34:23;100043.69;;;2.30;50.59
49627;BME280;35527;54.616;39.786;2023-02-12T17:37:28;100049.66;;;1.99;51.45
49627;BME280;35527;54.616;39.786;2023-02-12T17:40:35;100027.44;;;2.57;50.33
49627;BME280;35527;54.616;39.786;2023-02-12T17:43:40;100048.81;;;2.23;50.47
49627;BME280;35527;54.616;39.786;2023-02-12T17:46:43;100058.16;;;2.35;50.66
49627;BME280;35527;54.616;39.786;2023-02-12T17:49:46;100051.25;;;2.57;50.11
49627;BME280;35527;54.616;39.786;2023-02-12T17:52:52;100051.25;;;2.69;50.09
49627;BME280;35527;54.616;39.786;2023-02-12T17:55:55;100038.56;;;2.30;49.92
49627;BME280;35527;54.616;39.786;2023-02-12T17:59:00;100055.59;;;2.24;51.20
49627;BME280;35527;54.616;39.786;2023-02-12T18:02:28;100060.66;;;2.51;50.48
49627;BME280;35527;54.616;39.786;2023-02-12T18:05:30;100078.53;;;2.54;51.08
49627;BME280;35527;54.616;39.786;2023-02-12T18:08:37;100067.41;;;2.78;49.91
49627;BME280;35527;54.616;39.786;2023-02-12T18:11:41;100065.78;;;2.37;50.26
49627;BME280;35527;54.616;39.786;2023-02-12T18:14:43;100080.25;;;2.58;50.31
49627;BME280;35527;54.616;39.786;2023-02-12T18:17:47;100089.53;;;2.89;49.46
49627;BME280;35527;54.616;39.786;2023-02-12T18:20:54;100089.47;;;3.02;48.74
49627;BME280;35527;54.616;39.786;2023-02-12T18:24:01;100067.50;;;1.89;50.56
49627;BME280;35527;54.616;39.786;2023-02-12T18:27:05;100094.75;;;1.99;50.61
49627;BME280;35527;54.616;39.786;2023-02-12T18:30:11;100098.81;;;3.09;49.54
49627;BME280;35527;54.616;39.786;2023-02-12T18:33:43;100094.75;;;2.25;49.82
49627;BME280;35527;54.616;39.786;2023-02-12T18:36:47;100085.31;;;2.68;48.76
49627;BME280;35527;54.616;39.786;2023-02-12T18:39:50;100101.50;;;2.60;49.14
49627;BME280;35527;54.616;39.786;2023-02-12T18:42:53;100092.09;;;2.74;48.59
49627;BME280;35527;54.616;39.786;2023-02-12T18:45:56;100082.84;;;2.18;48.51
49627;BME280;35527;54.616;39.786;2023-02-12T18:49:00;100100.69;;;2.36;48.35
49627;BME280;35527;54.616;39.786;2023-02-12T18:52:07;100103.25;;;2.44;48.24